createdAt,value
2022-12-18T00:00:23.085Z,68.36
2022-12-18T00:01:20.015Z,68.34
2022-12-18T00:01:53.950Z,68.25
2022-12-18T00:02:27.537Z,68.23
2022-12-18T00:03:01.197Z,68.31
2022-12-18T00:03:35.356Z,68.54
2022-12-18T00:04:20.212Z,68.37
2022-12-18T00:04:53.779Z,68.43
2022-12-18T00:05:27.236Z,68.45
2022-12-18T00:06:01.082Z,68.46
2022-12-18T00:06:36.004Z,68.43
2022-12-18T00:07:09.775Z,68.50
2022-12-18T00:07:43.578Z,68.25
2022-12-18T00:08:17.699Z,68.28
2022-12-18T00:08:52.195Z,68.08
2022-12-18T00:09:25.915Z,67.80
2022-12-18T00:10:15.266Z,67.44
2022-12-18T00:10:52.213Z,67.27
2022-12-18T00:11:45.007Z,67.28
2022-12-18T00:12:21.573Z,67.47
2022-12-18T00:12:55.247Z,67.54
2022-12-18T00:13:28.810Z,67.76
2022-12-18T00:14:06.137Z,67.83
2022-12-18T00:14:40.204Z,67.57
2022-12-18T00:15:15.866Z,67.62
2022-12-18T00:15:49.701Z,67.67
2022-12-18T00:16:25.056Z,67.71
2022-12-18T00:17:01.962Z,67.60
2022-12-18T00:17:59.091Z,67.56
2022-12-18T00:18:33.526Z,67.80
2022-12-18T00:19:08.614Z,67.79
2022-12-18T00:19:42.295Z,67.93
2022-12-18T00:20:23.066Z,67.80
2022-12-18T00:21:00.502Z,67.72
2022-12-18T00:21:34.387Z,67.93
2022-12-18T00:22:07.940Z,67.88
2022-12-18T00:22:41.640Z,67.92
2022-12-18T00:23:15.659Z,67.79
2022-12-18T00:23:52.792Z,67.66
2022-12-18T00:24:26.240Z,68.02
2022-12-18T00:24:59.947Z,67.81
2022-12-18T00:25:37.388Z,67.87
2022-12-18T00:26:24.249Z,67.77
2022-12-18T00:26:58.459Z,67.68
2022-12-18T00:27:32.470Z,67.87
2022-12-18T00:28:06.220Z,67.89
2022-12-18T00:28:39.671Z,67.71
2022-12-18T00:29:15.075Z,67.72
2022-12-18T00:29:50.542Z,67.91
2022-12-18T00:30:24.854Z,67.84
2022-12-18T00:31:06.499Z,67.49
2022-12-18T00:31:40.013Z,67.67
2022-12-18T00:32:13.408Z,67.64
2022-12-18T00:32:47.728Z,67.53
2022-12-18T00:33:21.169Z,67.67
2022-12-18T00:33:58.186Z,67.56
2022-12-18T00:34:32.168Z,67.42
2022-12-18T00:35:07.709Z,67.66
2022-12-18T00:35:41.212Z,67.40
2022-12-18T00:36:17.342Z,67.49
2022-12-18T00:36:50.962Z,67.24
2022-12-18T00:37:24.474Z,67.26
2022-12-18T00:37:57.940Z,67.22
2022-12-18T00:38:31.366Z,67.24
2022-12-18T00:39:06.430Z,67.16
2022-12-18T00:39:39.793Z,67.21
2022-12-18T00:40:13.547Z,67.22
2022-12-18T00:40:46.935Z,67.17
2022-12-18T00:41:39.127Z,67.22
2022-12-18T00:42:31.247Z,67.24
2022-12-18T00:43:04.592Z,67.29
2022-12-18T00:43:39.813Z,67.36
2022-12-18T00:56:58.578Z,68.16
2022-12-18T00:57:45.297Z,68.03
2022-12-18T00:58:29.934Z,68.11
2022-12-18T00:59:28.587Z,68.38
2022-12-18T01:00:30.206Z,68.20
2022-12-18T01:01:25.859Z,68.38
2022-12-18T01:02:23.579Z,68.25
2022-12-18T01:03:59.405Z,68.44
2022-12-18T01:04:57.583Z,68.60
2022-12-18T01:06:19.047Z,68.64
2022-12-18T01:08:34.497Z,68.90
2022-12-18T01:10:16.213Z,68.88
2022-12-18T01:10:47.930Z,68.86
2022-12-18T01:11:42.669Z,69.19
2022-12-18T01:12:39.961Z,69.39
2022-12-18T01:13:23.767Z,69.31
2022-12-18T01:14:12.317Z,69.30
2022-12-18T01:15:02.347Z,69.27
2022-12-18T01:15:46.720Z,69.62
2022-12-18T01:16:21.291Z,69.58
2022-12-18T01:17:15.551Z,69.45
2022-12-18T01:18:04.622Z,69.48
2022-12-18T01:18:47.503Z,69.60
2022-12-18T01:19:24.245Z,69.67
2022-12-18T01:20:34.230Z,69.67
2022-12-18T01:21:24.382Z,69.53
2022-12-18T01:22:19.049Z,69.56
2022-12-18T01:22:53.964Z,69.63
2022-12-18T01:23:38.239Z,69.56
2022-12-18T01:24:24.070Z,69.63
2022-12-18T01:24:59.667Z,69.57
2022-12-18T01:25:40.423Z,69.64
2022-12-18T01:26:30.217Z,69.79
2022-12-18T01:26:33.942Z,68.68
2022-12-18T01:27:24.433Z,69.63
2022-12-18T01:27:59.020Z,69.95
2022-12-18T01:28:43.969Z,69.73
2022-12-18T01:29:28.728Z,69.81
2022-12-18T01:30:21.072Z,69.87
2022-12-18T01:30:55.091Z,69.81
2022-12-18T01:31:39.348Z,69.90
2022-12-18T01:32:13.102Z,69.79
2022-12-18T01:32:49.168Z,69.73
2022-12-18T01:33:32.264Z,69.70
2022-12-18T01:34:12.067Z,70.02
2022-12-18T01:34:51.733Z,69.89
2022-12-18T01:35:25.555Z,69.97
2022-12-18T01:36:00.671Z,70.07
2022-12-18T01:36:39.535Z,69.80
2022-12-18T01:37:15.725Z,69.71
2022-12-18T01:37:57.160Z,69.81
2022-12-18T01:38:38.198Z,69.76
2022-12-18T01:39:19.625Z,69.99
2022-12-18T01:39:55.707Z,70.13
2022-12-18T01:40:34.952Z,70.10
2022-12-18T01:41:15.849Z,70.33
2022-12-18T01:42:03.783Z,70.37
2022-12-18T01:42:55.609Z,70.35
2022-12-18T01:43:55.354Z,70.10
2022-12-18T01:44:51.087Z,70.14
2022-12-18T01:45:29.632Z,70.21
2022-12-18T01:46:10.766Z,70.37
2022-12-18T01:46:47.037Z,70.11
2022-12-18T01:47:42.811Z,70.20
2022-12-18T01:48:20.257Z,70.04
2022-12-18T01:49:05.806Z,70.22
2022-12-18T01:49:48.586Z,70.30
2022-12-18T01:51:08.082Z,70.29
2022-12-18T01:51:54.300Z,70.19
2022-12-18T01:52:42.236Z,70.30
2022-12-18T01:53:40.081Z,70.24
2022-12-18T01:54:24.002Z,70.18
2022-12-18T01:55:01.308Z,70.26
2022-12-18T01:56:01.170Z,70.41
2022-12-18T01:56:54.857Z,70.39
2022-12-18T01:57:49.137Z,70.20
2022-12-18T02:00:04.527Z,70.42
2022-12-18T02:00:56.214Z,70.33
2022-12-18T02:01:40.287Z,70.44
2022-12-18T02:02:20.332Z,70.36
2022-12-18T02:03:12.522Z,70.39
2022-12-18T02:04:21.818Z,70.63
2022-12-18T02:05:01.555Z,70.33
2022-12-18T02:05:42.582Z,70.19
2022-12-18T02:06:41.362Z,70.47
2022-12-18T02:07:56.308Z,70.30
2022-12-18T02:08:43.107Z,70.31
2022-12-18T02:09:26.941Z,70.45
2022-12-18T02:10:07.990Z,70.49
2022-12-18T02:11:22.678Z,70.41
2022-12-18T02:12:17.731Z,70.40
2022-12-18T02:13:44.886Z,70.45
2022-12-18T02:14:32.340Z,70.45
2022-12-18T02:15:17.851Z,70.51
2022-12-18T02:16:15.443Z,70.41
2022-12-18T02:17:18.755Z,70.38
2022-12-18T02:18:21.290Z,70.25
2022-12-18T02:19:03.436Z,70.47
2022-12-18T02:20:20.997Z,70.37
2022-12-18T02:21:22.456Z,70.47
2022-12-18T02:22:22.545Z,70.50
2022-12-18T02:23:25.765Z,70.50
2022-12-18T02:24:42.140Z,70.35
2022-12-18T02:25:46.781Z,70.20
2022-12-18T02:26:45.235Z,70.41
2022-12-18T02:27:22.922Z,70.32
2022-12-18T02:28:01.640Z,70.13
2022-12-18T02:28:54.459Z,70.28
2022-12-18T02:29:45.847Z,70.27
2022-12-18T02:30:25.160Z,70.24
2022-12-18T02:31:15.566Z,70.21
2022-12-18T02:32:11.806Z,70.21
2022-12-18T02:32:51.294Z,70.11
2022-12-18T02:33:31.888Z,70.26
2022-12-18T02:34:16.956Z,70.24
2022-12-18T02:34:52.540Z,70.05
2022-12-18T02:35:42.873Z,70.03
2022-12-18T02:36:20.070Z,70.03
2022-12-18T02:36:58.855Z,70.09
2022-12-18T02:37:39.449Z,70.05
2022-12-18T02:38:19.665Z,69.85
2022-12-18T02:39:00.400Z,69.81
2022-12-18T02:39:41.117Z,69.86
2022-12-18T02:40:24.803Z,69.95
2022-12-18T02:41:10.136Z,69.71
2022-12-18T02:41:44.652Z,69.58
2022-12-18T02:42:23.472Z,69.77
2022-12-18T02:43:12.170Z,69.81
2022-12-18T02:44:02.784Z,69.54
2022-12-18T02:44:50.475Z,69.50
2022-12-18T02:45:28.944Z,69.48
2022-12-18T02:46:24.504Z,69.65
2022-12-18T02:47:08.374Z,69.48
2022-12-18T02:47:51.040Z,69.47
2022-12-18T02:48:40.405Z,69.60
2022-12-18T02:50:50.275Z,69.62
2022-12-18T02:51:55.901Z,69.49
2022-12-18T02:52:32.696Z,69.30
2022-12-18T02:53:45.101Z,69.55
2022-12-18T02:54:52.604Z,69.28
2022-12-18T02:55:40.465Z,69.36
2022-12-18T02:56:23.010Z,69.41
2022-12-18T02:57:04.641Z,69.44
2022-12-18T02:57:43.997Z,69.39
2022-12-18T02:58:29.845Z,69.59
2022-12-18T02:59:16.047Z,69.36
2022-12-18T03:00:10.346Z,69.34
2022-12-18T03:00:50.203Z,69.47
2022-12-18T03:01:40.343Z,69.37
2022-12-18T03:02:33.411Z,69.32
2022-12-18T03:03:16.633Z,69.22
2022-12-18T03:03:59.473Z,69.25
2022-12-18T03:04:44.892Z,69.26
2022-12-18T03:05:23.796Z,69.32
2022-12-18T03:06:05.701Z,69.15
2022-12-18T03:06:48.434Z,69.34
2022-12-18T03:07:29.244Z,69.12
2022-12-18T03:08:13.997Z,69.14
2022-12-18T03:08:54.040Z,69.10
2022-12-18T03:09:37.911Z,69.18
2022-12-18T03:10:16.166Z,68.99
2022-12-18T03:11:01.600Z,69.27
2022-12-18T03:11:59.350Z,69.24
2022-12-18T03:12:36.924Z,68.85
2022-12-18T03:13:18.256Z,69.04
2022-12-18T03:13:59.184Z,68.92
2022-12-18T03:14:35.410Z,68.87
2022-12-18T03:15:26.201Z,68.83
2022-12-18T03:16:08.835Z,68.93
2022-12-18T03:16:43.624Z,69.01
2022-12-18T03:17:21.910Z,68.88
2022-12-18T03:18:05.640Z,68.69
2022-12-18T03:18:46.849Z,68.87
2022-12-18T03:19:25.514Z,68.85
2022-12-18T03:20:06.003Z,68.84
2022-12-18T03:20:43.491Z,69.02
2022-12-18T03:21:22.749Z,68.83
2022-12-18T03:21:59.397Z,68.81
2022-12-18T03:22:35.969Z,68.80
2022-12-18T03:23:18.974Z,68.83
2022-12-18T03:23:56.005Z,68.73
2022-12-18T03:24:33.578Z,68.66
2022-12-18T03:25:12.298Z,68.65
2022-12-18T03:25:47.680Z,68.67
2022-12-18T03:26:26.399Z,68.63
2022-12-18T03:27:06.971Z,68.64
2022-12-18T03:27:48.738Z,68.71
2022-12-18T03:28:24.172Z,68.58
2022-12-18T03:29:08.061Z,68.53
2022-12-18T03:29:48.519Z,68.71
2022-12-18T03:30:22.208Z,68.70
2022-12-18T03:31:00.372Z,68.71
2022-12-18T03:31:34.850Z,68.43
2022-12-18T03:32:47.908Z,68.56
2022-12-18T03:33:28.677Z,68.52
2022-12-18T03:34:16.704Z,68.45
2022-12-18T03:34:55.046Z,68.71
2022-12-18T03:35:35.055Z,68.70
2022-12-18T03:36:08.955Z,68.65
2022-12-18T03:36:42.482Z,68.77
2022-12-18T03:37:16.543Z,68.74
2022-12-18T03:37:50.454Z,68.63
2022-12-18T03:38:24.849Z,68.78
2022-12-18T03:39:00.260Z,68.72
2022-12-18T03:39:37.940Z,68.55
2022-12-18T03:40:11.674Z,68.64
2022-12-18T03:41:01.637Z,68.57
2022-12-18T03:41:47.315Z,68.47
2022-12-18T03:42:47.849Z,68.56
2022-12-18T03:43:47.462Z,68.58
2022-12-18T03:44:49.144Z,68.55
2022-12-18T03:45:33.906Z,68.72
2022-12-18T03:46:23.478Z,68.73
2022-12-18T03:47:37.806Z,68.68
2022-12-18T03:48:19.866Z,68.68
2022-12-18T03:49:34.473Z,68.69
2022-12-18T03:50:38.059Z,68.62
2022-12-18T03:51:40.836Z,68.45
2022-12-18T03:52:25.405Z,68.49
2022-12-18T03:53:11.761Z,68.46
2022-12-18T03:53:50.461Z,68.58
2022-12-18T03:54:26.675Z,68.49
2022-12-18T03:55:06.745Z,68.57
2022-12-18T03:55:42.301Z,68.36
2022-12-18T03:56:18.103Z,68.53
2022-12-18T03:57:01.373Z,68.39
2022-12-18T03:57:35.704Z,68.34
2022-12-18T03:58:15.770Z,68.37
2022-12-18T03:59:00.474Z,68.43
2022-12-18T03:59:36.556Z,68.46
2022-12-18T04:00:13.759Z,68.42
2022-12-18T04:01:09.946Z,68.51
2022-12-18T04:01:49.379Z,68.44
2022-12-18T04:02:25.040Z,68.43
2022-12-18T04:03:01.933Z,68.39
2022-12-18T04:03:45.724Z,68.54
2022-12-18T04:04:20.515Z,68.50
2022-12-18T04:04:58.124Z,68.36
2022-12-18T04:05:33.669Z,68.15
2022-12-18T04:06:08.692Z,68.24
2022-12-18T04:06:42.858Z,68.27
2022-12-18T04:07:18.227Z,68.08
2022-12-18T04:07:53.430Z,68.22
2022-12-18T04:08:27.505Z,67.98
2022-12-18T04:09:08.374Z,68.09
2022-12-18T04:09:46.873Z,68.13
2022-12-18T04:10:20.389Z,68.21
2022-12-18T04:10:54.094Z,68.07
2022-12-18T04:11:27.948Z,68.03
2022-12-18T04:12:01.468Z,68.02
2022-12-18T04:12:34.838Z,68.07
2022-12-18T04:13:08.896Z,67.98
2022-12-18T04:13:44.107Z,67.91
2022-12-18T04:14:23.561Z,67.83
2022-12-18T04:14:58.671Z,67.83
2022-12-18T04:15:35.940Z,67.68
2022-12-18T04:16:10.716Z,67.80
2022-12-18T04:16:46.427Z,67.72
2022-12-18T04:17:22.024Z,67.57
2022-12-18T04:17:55.518Z,67.71
2022-12-18T04:18:30.267Z,67.71
2022-12-18T04:19:04.114Z,67.73
2022-12-18T04:19:42.221Z,67.69
2022-12-18T04:20:17.948Z,67.58
2022-12-18T04:20:51.367Z,67.58
2022-12-18T04:21:25.055Z,67.63
2022-12-18T04:21:59.156Z,67.57
2022-12-18T04:22:33.375Z,67.50
2022-12-18T04:23:06.935Z,67.43
2022-12-18T04:23:41.081Z,67.68
2022-12-18T04:24:14.881Z,67.60
2022-12-18T04:24:53.134Z,67.49
2022-12-18T04:25:33.649Z,67.33
2022-12-18T04:26:15.781Z,67.43
2022-12-18T04:26:59.341Z,67.55
2022-12-18T04:27:38.138Z,67.46
2022-12-18T04:28:11.670Z,67.47
2022-12-18T04:28:45.505Z,67.44
2022-12-18T04:29:18.949Z,67.40
2022-12-18T04:29:52.706Z,67.33
2022-12-18T04:30:26.241Z,67.32
2022-12-18T04:31:00.048Z,67.26
2022-12-18T04:31:34.529Z,67.29
2022-12-18T04:32:10.136Z,67.30
2022-12-18T04:32:47.718Z,67.22
2022-12-18T04:33:24.186Z,67.30
2022-12-18T04:33:57.776Z,67.36
2022-12-18T04:34:31.855Z,67.21
2022-12-18T04:35:07.800Z,67.28
2022-12-18T04:35:43.037Z,67.06
2022-12-18T04:36:16.664Z,66.99
2022-12-18T04:36:50.186Z,67.01
2022-12-18T04:37:23.686Z,66.90
2022-12-18T04:37:57.413Z,66.77
2022-12-18T04:38:30.895Z,66.71
2022-12-18T04:39:09.799Z,66.56
2022-12-18T04:39:43.215Z,66.65
2022-12-18T04:40:21.972Z,66.64
2022-12-18T04:40:55.700Z,66.69
2022-12-18T04:41:32.263Z,66.81
2022-12-18T04:42:05.867Z,66.80
2022-12-18T04:42:41.594Z,66.68
2022-12-18T04:43:15.162Z,66.61
2022-12-18T04:43:48.600Z,66.80
2022-12-18T04:44:24.890Z,66.62
2022-12-18T04:44:58.229Z,66.61
2022-12-18T04:45:32.414Z,66.56
2022-12-18T04:46:10.155Z,66.57
2022-12-18T04:46:43.705Z,66.63
2022-12-18T04:47:17.110Z,66.78
2022-12-18T04:47:50.964Z,66.71
2022-12-18T04:48:24.414Z,66.79
2022-12-18T04:48:57.792Z,66.92
2022-12-18T04:49:31.189Z,66.86
2022-12-18T04:50:05.264Z,67.03
2022-12-18T04:50:38.782Z,66.78
2022-12-18T04:51:12.134Z,66.98
2022-12-18T04:51:46.115Z,66.97
2022-12-18T04:52:19.462Z,66.91
2022-12-18T04:52:52.965Z,67.08
2022-12-18T04:53:26.887Z,66.99
2022-12-18T04:54:00.301Z,67.06
2022-12-18T04:54:33.735Z,67.14
2022-12-18T04:55:07.675Z,66.98
2022-12-18T04:55:40.968Z,66.96
2022-12-18T04:56:16.647Z,66.92
2022-12-18T04:56:50.167Z,66.99
2022-12-18T04:57:23.586Z,66.90
2022-12-18T04:57:57.053Z,66.85
2022-12-18T04:58:30.374Z,66.19
2022-12-18T04:59:04.294Z,66.24
2022-12-18T04:59:37.999Z,66.16
2022-12-18T05:00:12.040Z,66.29
2022-12-18T05:00:45.502Z,66.12
2022-12-18T05:01:19.960Z,66.07
2022-12-18T05:01:53.418Z,66.20
2022-12-18T05:02:27.666Z,66.32
2022-12-18T05:03:03.736Z,66.40
2022-12-18T05:03:38.649Z,66.14
2022-12-18T05:04:12.432Z,66.24
2022-12-18T05:04:45.908Z,66.34
2022-12-18T05:05:19.408Z,66.38
2022-12-18T05:05:53.225Z,66.38
2022-12-18T05:06:26.548Z,66.41
2022-12-18T05:06:59.907Z,66.27
2022-12-18T05:07:33.273Z,66.26
2022-12-18T05:08:06.964Z,66.35
2022-12-18T05:08:40.721Z,66.32
2022-12-18T05:09:14.576Z,66.18
2022-12-18T05:09:47.925Z,66.30
2022-12-18T05:10:21.236Z,66.32
2022-12-18T05:11:02.859Z,66.42
2022-12-18T05:11:37.485Z,66.44
2022-12-18T05:12:10.880Z,66.32
2022-12-18T05:13:00.937Z,66.51
2022-12-18T05:13:35.868Z,66.54
2022-12-18T05:14:09.551Z,66.66
2022-12-18T05:14:43.129Z,66.68
2022-12-18T05:15:16.588Z,66.64
2022-12-18T05:15:53.763Z,66.73
2022-12-18T05:16:27.185Z,66.61
2022-12-18T05:17:01.272Z,66.82
2022-12-18T05:17:34.920Z,66.63
2022-12-18T05:18:08.697Z,66.75
2022-12-18T05:18:42.839Z,66.75
2022-12-18T05:19:16.322Z,66.83
2022-12-18T05:19:49.790Z,66.75
2022-12-18T05:20:23.308Z,66.78
2022-12-18T05:20:56.807Z,66.82
2022-12-18T05:21:30.265Z,66.59
2022-12-18T05:22:04.192Z,66.71
2022-12-18T05:22:37.776Z,66.56
2022-12-18T05:23:11.269Z,66.52
2022-12-18T05:23:44.827Z,66.51
2022-12-18T05:24:18.233Z,66.49
2022-12-18T05:24:51.838Z,66.36
2022-12-18T05:25:25.390Z,66.62
2022-12-18T05:26:01.649Z,66.71
2022-12-18T05:26:35.239Z,66.54
2022-12-18T05:27:08.755Z,66.64
2022-12-18T05:27:42.601Z,66.36
2022-12-18T05:28:16.060Z,66.59
2022-12-18T05:28:49.480Z,66.35
2022-12-18T05:29:22.953Z,66.41
2022-12-18T05:29:56.295Z,66.48
2022-12-18T05:30:30.040Z,66.47
2022-12-18T05:31:06.513Z,66.63
2022-12-18T05:31:40.303Z,66.69
2022-12-18T05:32:13.835Z,66.63
2022-12-18T05:32:47.238Z,66.59
2022-12-18T05:33:22.908Z,66.56
2022-12-18T05:33:56.495Z,66.64
2022-12-18T05:34:29.928Z,66.51
2022-12-18T05:35:03.581Z,66.60
2022-12-18T05:35:37.066Z,66.40
2022-12-18T05:36:10.815Z,66.32
2022-12-18T05:36:44.409Z,66.33
2022-12-18T05:37:18.195Z,66.34
2022-12-18T05:37:51.616Z,66.23
2022-12-18T05:38:27.960Z,66.32
2022-12-18T05:39:01.513Z,66.23
2022-12-18T05:39:34.896Z,66.26
2022-12-18T05:40:08.956Z,66.17
2022-12-18T05:40:44.846Z,66.18
2022-12-18T05:41:18.157Z,66.13
2022-12-18T05:41:51.480Z,66.17
2022-12-18T05:42:24.931Z,66.14
2022-12-18T05:42:58.269Z,66.19
2022-12-18T05:43:32.187Z,66.24
2022-12-18T05:44:05.932Z,66.10
2022-12-18T05:44:39.336Z,66.22
2022-12-18T05:45:12.759Z,66.21
2022-12-18T05:45:46.612Z,66.21
2022-12-18T05:46:20.100Z,66.28
2022-12-18T05:46:53.554Z,65.99
2022-12-18T05:47:28.756Z,66.19
2022-12-18T05:48:02.095Z,66.36
2022-12-18T05:48:35.730Z,66.35
2022-12-18T05:49:09.051Z,66.30
2022-12-18T05:49:42.576Z,66.31
2022-12-18T05:50:15.980Z,66.35
2022-12-18T05:50:51.423Z,66.39
2022-12-18T05:51:24.835Z,66.38
2022-12-18T05:51:58.202Z,66.54
2022-12-18T05:52:32.186Z,66.41
2022-12-18T05:53:06.812Z,66.43
2022-12-18T05:53:40.620Z,66.50
2022-12-18T05:54:14.255Z,66.52
2022-12-18T05:54:47.565Z,66.50
2022-12-18T05:55:21.107Z,66.46
2022-12-18T05:55:54.556Z,66.55
2022-12-18T05:56:27.947Z,66.51
2022-12-18T05:57:01.376Z,66.55
2022-12-18T05:57:34.800Z,66.46
2022-12-18T05:58:10.372Z,66.40
2022-12-18T05:58:44.620Z,66.42
2022-12-18T05:59:18.215Z,65.74
2022-12-18T05:59:52.053Z,65.68
2022-12-18T06:00:25.622Z,65.73
2022-12-18T06:00:59.609Z,65.69
2022-12-18T06:01:33.236Z,65.80
2022-12-18T06:02:06.930Z,65.86
2022-12-18T06:02:40.936Z,65.75
2022-12-18T06:03:15.234Z,65.61
2022-12-18T06:03:48.885Z,65.66
2022-12-18T06:04:22.506Z,65.88
2022-12-18T06:04:56.368Z,65.83
2022-12-18T06:05:29.976Z,65.87
2022-12-18T06:06:03.776Z,65.84
2022-12-18T06:06:38.022Z,65.88
2022-12-18T06:07:12.584Z,65.84
2022-12-18T06:07:46.245Z,65.96
2022-12-18T06:08:19.733Z,66.09
2022-12-18T06:08:54.768Z,66.03
2022-12-18T06:09:28.392Z,65.99
2022-12-18T06:10:02.069Z,66.04
2022-12-18T06:10:35.666Z,66.03
2022-12-18T06:11:09.294Z,66.04
2022-12-18T06:11:42.966Z,65.98
2022-12-18T06:12:16.950Z,66.05
2022-12-18T06:12:50.435Z,65.99
2022-12-18T06:13:24.237Z,66.08
2022-12-18T06:13:59.447Z,66.04
2022-12-18T06:14:34.202Z,65.88
2022-12-18T06:15:08.417Z,65.92
2022-12-18T06:15:42.068Z,65.97
2022-12-18T06:16:15.549Z,65.98
2022-12-18T06:16:51.342Z,66.01
2022-12-18T06:17:28.463Z,66.00
2022-12-18T06:18:02.113Z,65.98
2022-12-18T06:18:35.881Z,66.10
2022-12-18T06:19:09.140Z,66.00
2022-12-18T06:19:42.719Z,65.98
2022-12-18T06:20:16.135Z,65.87
2022-12-18T06:20:58.310Z,65.88
2022-12-18T06:21:33.125Z,65.88
2022-12-18T06:22:07.045Z,65.95
2022-12-18T06:22:40.399Z,65.77
2022-12-18T06:23:13.791Z,65.92
2022-12-18T06:23:47.176Z,65.90
2022-12-18T06:24:20.541Z,65.93
2022-12-18T06:24:54.350Z,65.99
2022-12-18T06:25:27.818Z,65.94
2022-12-18T06:26:08.525Z,65.90
2022-12-18T06:26:42.469Z,65.94
2022-12-18T06:27:16.162Z,66.06
2022-12-18T06:27:49.692Z,65.98
2022-12-18T06:28:23.156Z,66.07
2022-12-18T06:28:57.207Z,66.13
2022-12-18T06:29:31.037Z,65.95
2022-12-18T06:30:05.598Z,66.00
2022-12-18T06:30:39.132Z,66.13
2022-12-18T06:31:12.903Z,66.12
2022-12-18T06:31:46.817Z,66.14
2022-12-18T06:32:20.191Z,66.16
2022-12-18T06:32:56.771Z,66.11
2022-12-18T06:33:30.660Z,66.10
2022-12-18T06:34:05.567Z,66.08
2022-12-18T06:34:39.470Z,66.13
2022-12-18T06:35:12.927Z,66.23
2022-12-18T06:35:46.465Z,66.22
2022-12-18T06:36:20.883Z,66.39
2022-12-18T06:36:54.627Z,66.25
2022-12-18T06:37:28.564Z,66.34
2022-12-18T06:38:03.579Z,66.45
2022-12-18T06:38:40.832Z,66.48
2022-12-18T06:39:15.015Z,66.57
2022-12-18T06:39:48.802Z,66.63
2022-12-18T06:40:22.585Z,66.63
2022-12-18T06:40:56.435Z,66.65
2022-12-18T06:41:30.255Z,66.60
2022-12-18T06:42:05.820Z,66.74
2022-12-18T06:42:39.797Z,66.79
2022-12-18T06:43:14.827Z,66.68
2022-12-18T06:43:53.566Z,66.73
2022-12-18T06:44:30.716Z,66.63
2022-12-18T06:45:08.511Z,66.65
2022-12-18T06:45:42.796Z,66.64
2022-12-18T06:46:17.001Z,66.66
2022-12-18T06:46:51.277Z,66.51
2022-12-18T06:47:25.601Z,66.59
2022-12-18T06:47:59.790Z,66.56
2022-12-18T06:48:34.581Z,66.62
2022-12-18T06:49:13.573Z,66.49
2022-12-18T06:49:48.443Z,66.62
2022-12-18T06:50:22.655Z,66.39
2022-12-18T06:50:57.271Z,66.53
2022-12-18T06:51:31.252Z,66.36
2022-12-18T06:52:07.377Z,66.43
2022-12-18T06:52:41.676Z,66.00
2022-12-18T06:53:17.071Z,66.28
2022-12-18T06:53:51.350Z,66.17
2022-12-18T06:54:25.607Z,66.19
2022-12-18T06:54:59.707Z,65.98
2022-12-18T06:55:33.854Z,66.08
2022-12-18T06:56:11.218Z,65.97
2022-12-18T06:56:47.693Z,65.99
2022-12-18T06:57:23.732Z,65.81
2022-12-18T06:57:58.075Z,65.81
2022-12-18T06:58:34.790Z,66.08
2022-12-18T06:59:08.637Z,65.90
2022-12-18T06:59:42.345Z,65.75
2022-12-18T07:00:16.464Z,65.82
2022-12-18T07:00:50.057Z,65.89
2022-12-18T07:01:24.556Z,65.94
2022-12-18T07:01:58.340Z,65.97
2022-12-18T07:02:33.917Z,65.97
2022-12-18T07:03:07.902Z,65.96
2022-12-18T07:03:43.385Z,65.83
2022-12-18T07:04:17.465Z,65.94
2022-12-18T07:04:51.088Z,65.81
2022-12-18T07:05:24.753Z,65.88
2022-12-18T07:05:58.273Z,66.00
2022-12-18T07:06:31.968Z,65.85
2022-12-18T07:07:05.655Z,65.84
2022-12-18T07:07:39.320Z,65.87
2022-12-18T07:08:12.923Z,65.91
2022-12-18T07:08:47.988Z,65.90
2022-12-18T07:09:21.768Z,65.91
2022-12-18T07:09:55.691Z,65.74
2022-12-18T07:10:29.194Z,65.82
2022-12-18T07:11:05.627Z,65.86
2022-12-18T07:11:39.186Z,65.81
2022-12-18T07:12:12.678Z,65.85
2022-12-18T07:12:46.312Z,65.78
2022-12-18T07:13:19.880Z,65.83
2022-12-18T07:13:54.245Z,65.76
2022-12-18T07:14:27.882Z,65.69
2022-12-18T07:15:01.399Z,65.79
2022-12-18T07:15:34.911Z,65.77
2022-12-18T07:16:20.885Z,65.77
2022-12-18T07:16:56.800Z,65.76
2022-12-18T07:17:31.005Z,65.87
2022-12-18T07:18:04.834Z,65.77
2022-12-18T07:18:38.592Z,65.75
2022-12-18T07:19:12.012Z,65.70
2022-12-18T07:19:45.445Z,65.77
2022-12-18T07:20:18.877Z,65.72
2022-12-18T07:20:52.270Z,65.65
2022-12-18T07:21:25.987Z,65.70
2022-12-18T07:21:59.342Z,65.53
2022-12-18T07:22:32.848Z,65.71
2022-12-18T07:23:06.826Z,65.43
2022-12-18T07:23:41.112Z,65.55
2022-12-18T07:24:14.708Z,65.54
2022-12-18T07:24:48.129Z,65.58
2022-12-18T07:25:22.569Z,65.56
2022-12-18T07:25:55.975Z,65.56
2022-12-18T07:26:29.390Z,65.64
2022-12-18T07:27:02.917Z,65.56
2022-12-18T07:27:36.326Z,65.87
2022-12-18T07:28:14.242Z,65.61
2022-12-18T07:28:51.071Z,65.79
2022-12-18T07:29:24.543Z,65.92
2022-12-18T07:29:58.462Z,65.67
2022-12-18T07:30:31.914Z,65.73
2022-12-18T07:31:13.503Z,65.70
2022-12-18T07:31:47.184Z,65.10
2022-12-18T07:32:20.684Z,65.52
2022-12-18T07:32:54.066Z,65.42
2022-12-18T07:33:27.545Z,65.54
2022-12-18T07:34:01.806Z,65.24
2022-12-18T07:34:35.612Z,65.11
2022-12-18T07:35:09.221Z,65.01
2022-12-18T07:35:43.630Z,64.87
2022-12-18T07:36:17.624Z,64.52
2022-12-18T07:36:51.017Z,64.72
2022-12-18T07:37:24.475Z,64.49
2022-12-18T07:37:57.935Z,64.72
2022-12-18T07:38:32.126Z,64.61
2022-12-18T07:39:05.541Z,64.44
2022-12-18T07:39:38.870Z,63.98
2022-12-18T07:40:12.880Z,64.29
2022-12-18T07:40:46.425Z,64.02
2022-12-18T07:41:21.032Z,63.89
2022-12-18T07:42:13.540Z,63.70
2022-12-18T07:42:46.991Z,63.22
2022-12-18T07:43:20.419Z,63.20
2022-12-18T07:43:53.855Z,63.31
2022-12-18T07:44:27.158Z,63.05
2022-12-18T07:45:02.355Z,62.78
2022-12-18T07:45:35.890Z,62.85
2022-12-18T07:46:10.718Z,62.61
2022-12-18T07:46:46.547Z,62.31
2022-12-18T07:47:19.891Z,62.04
2022-12-18T07:47:53.376Z,62.12
2022-12-18T07:48:26.765Z,61.88
2022-12-18T07:49:00.207Z,61.53
2022-12-18T07:49:33.588Z,61.69
2022-12-18T07:50:07.574Z,61.42
2022-12-18T07:50:41.100Z,61.00
2022-12-18T07:51:15.516Z,61.16
2022-12-18T07:51:50.270Z,60.63
2022-12-18T07:52:26.191Z,60.52
2022-12-18T07:53:04.630Z,60.45
2022-12-18T07:53:38.563Z,60.45
2022-12-18T07:54:12.349Z,59.43
2022-12-18T07:54:46.481Z,58.31
2022-12-18T07:55:20.302Z,58.26
2022-12-18T07:56:26.395Z,58.41
2022-12-18T07:57:01.175Z,58.63
2022-12-18T07:57:49.872Z,58.45
2022-12-18T07:58:24.089Z,58.08
2022-12-18T07:59:01.095Z,58.43
2022-12-18T07:59:37.771Z,57.58
2022-12-18T08:00:13.748Z,57.58
2022-12-18T08:00:47.689Z,57.50
2022-12-18T08:01:22.979Z,57.46
2022-12-18T08:01:57.094Z,57.58
2022-12-18T08:02:33.147Z,57.60
2022-12-18T08:03:07.136Z,57.18
2022-12-18T08:03:42.380Z,56.49
2022-12-18T08:04:16.793Z,56.44
2022-12-18T08:04:50.296Z,56.21
2022-12-18T08:05:24.678Z,56.34
2022-12-18T08:06:06.442Z,56.60
2022-12-18T08:06:47.574Z,56.12
2022-12-18T08:07:21.955Z,55.52
2022-12-18T08:07:57.252Z,55.86
2022-12-18T08:08:31.322Z,55.56
2022-12-18T08:09:05.209Z,55.83
2022-12-18T08:09:38.622Z,55.50
2022-12-18T08:10:12.208Z,55.13
2022-12-18T08:10:45.856Z,54.90
2022-12-18T08:11:19.572Z,54.40
2022-12-18T08:11:53.304Z,54.30
2022-12-18T08:12:26.905Z,54.15
2022-12-18T08:13:04.882Z,53.90
2022-12-18T08:13:39.160Z,53.70
2022-12-18T08:14:13.082Z,53.09
2022-12-18T08:14:46.601Z,53.31
2022-12-18T08:15:20.069Z,52.90
2022-12-18T08:16:00.212Z,52.22
2022-12-18T08:16:33.819Z,52.72
2022-12-18T08:17:07.254Z,52.71
2022-12-18T08:17:40.663Z,52.63
2022-12-18T08:18:14.638Z,51.95
2022-12-18T08:18:48.119Z,52.23
2022-12-18T08:19:23.157Z,51.88
2022-12-18T08:19:56.571Z,51.51
2022-12-18T08:20:30.036Z,51.33
2022-12-18T08:21:16.176Z,50.77
2022-12-18T08:21:50.505Z,51.29
2022-12-18T08:22:23.960Z,50.62
2022-12-18T08:22:59.278Z,50.66
2022-12-18T08:23:35.092Z,50.93
2022-12-18T08:24:12.083Z,50.08
2022-12-18T08:24:46.375Z,50.78
2022-12-18T08:25:19.937Z,50.97
2022-12-18T08:25:53.458Z,50.96
2022-12-18T08:26:28.828Z,50.65
2022-12-18T08:27:57.730Z,50.47
2022-12-18T08:28:37.382Z,50.19
2022-12-18T08:29:11.826Z,50.32
2022-12-18T08:29:45.298Z,50.04
2022-12-18T08:30:18.837Z,49.80
2022-12-18T08:30:53.676Z,49.72
2022-12-18T08:31:29.025Z,49.26
2022-12-18T08:32:03.088Z,49.57
2022-12-18T08:32:37.750Z,49.61
2022-12-18T08:33:11.785Z,49.25